Overview Statistics Trail Chart Weather Telemetry Raw packets
 

This is the latest recevied weather packets stored in our database for station/object W5MAI. If no packets are shown the sender has not sent any weather packets the latest 10 day(s).

<< 38 39 40 41 42 43 44 >>
Time Temp. Humidity Pressure Rain* Wind** Luminosity Snow
1787969605 24.44° C 83% 1018.5 hPa 0 mm - 0 W/m² -
1787969026 23.89° C 86% 1018.7 hPa 0 mm - 0 W/m² -
1787968461 23.89° C 85% 1018.9 hPa 0 mm - 0 W/m² -
1787967232 24.44° C 79% 1019.4 hPa 0 mm - 0 W/m² -
1787966663 25° C 75% 1018.9 hPa 0 mm - 0 W/m² -
1787966022 25° C 76% 1018.8 hPa 0 mm - 0 W/m² -
1787965462 26.11° C 71% 1018.4 hPa 0 mm - 9 W/m² -
1787964815 27.22° C 66% 1018.3 hPa 0 mm - 18 W/m² -
1787964243 28.33° C 64% 1018.5 hPa 0 mm - 14 W/m² -
1787963657 32.22° C 58% 1017.4 hPa 0 mm - 9 W/m² -
1787963025 33.33° C 55% 1016.6 hPa 0 mm - 44 W/m² -
1787962459 33.33° C 54% 1016.4 hPa 0 mm - 37 W/m² -
1787961812 33.89° C 54% 1016.2 hPa 0 mm - 46 W/m² -
1787961241 33.89° C 51% 1016.1 hPa 0 mm - 67 W/m² -
1787960657 34.44° C 50% 1015.8 hPa 0 mm - 79 W/m² -
1787960007 35° C 49% 1015.8 hPa 0 mm - 146 W/m² -
1787959444 35° C 49% 1015.8 hPa 0 mm - 329 W/m² -
1787958807 35° C 49% 1015.9 hPa 0 mm - 360 W/m² -
1787958230 35° C 48% 1016 hPa 0 mm - 404 W/m² -
1787957603 35.56° C 47% 1016.1 hPa 0 mm - 144 W/m² -
1787957039 35.56° C 49% 1016.2 hPa 0 mm - 431 W/m² -
1787956460 35.56° C 47% 1015.9 hPa 0 mm - 464 W/m² -
1787954621 35.56° C 50% 1016.1 hPa 0 mm - 563 W/m² -
1787954057 35.56° C 48% 1016.2 hPa 0 mm - 606 W/m² -
1787953411 36.67° C 47% 1016.1 hPa 0 mm - 628 W/m² -

* Rain latest hour (hover to see other rain measurements)
** Current wind speed in m/s (hover to see current wind gust speed)